sensor_id;sensor_type;location;lat;lon;timestamp;pressure;altitude;pressure_sealevel;temperature;humidity
32733;BME280;11867;51.198;11.966;2024-01-15T00:01:18;98759.19;;;1.02;92.64
32733;BME280;11867;51.198;11.966;2024-01-15T00:02:41;98753.59;;;1.08;91.67
32733;BME280;11867;51.198;11.966;2024-01-15T00:04:04;98761.41;;;1.10;91.63
32733;BME280;11867;51.198;11.966;2024-01-15T00:05:26;98763.53;;;1.08;91.93
32733;BME280;11867;51.198;11.966;2024-01-15T00:06:49;98753.34;;;1.10;91.39
32733;BME280;11867;51.198;11.966;2024-01-15T00:08:11;98753.59;;;1.08;92.15
32733;BME280;11867;51.198;11.966;2024-01-15T00:09:35;98750.69;;;1.10;91.79
32733;BME280;11867;51.198;11.966;2024-01-15T00:10:58;98757.16;;;1.19;91.51
32733;BME280;11867;51.198;11.966;2024-01-15T00:12:21;98764.16;;;1.20;91.32
32733;BME280;11867;51.198;11.966;2024-01-15T00:13:43;98770.28;;;1.15;91.05
32733;BME280;11867;51.198;11.966;2024-01-15T00:15:07;98762.44;;;1.04;90.99
32733;BME280;11867;51.198;11.966;2024-01-15T00:16:30;98747.38;;;0.97;91.75
32733;BME280;11867;51.198;11.966;2024-01-15T00:17:53;98745.47;;;0.98;91.90
32733;BME280;11867;51.198;11.966;2024-01-15T00:19:15;98733.97;;;1.03;92.76
32733;BME280;11867;51.198;11.966;2024-01-15T00:20:38;98741.78;;;1.09;92.33
32733;BME280;11867;51.198;11.966;2024-01-15T00:22:00;98733.16;;;1.02;92.17
32733;BME280;11867;51.198;11.966;2024-01-15T00:23:24;98724.81;;;0.98;92.14
32733;BME280;11867;51.198;11.966;2024-01-15T00:24:46;98726.91;;;0.91;92.57
32733;BME280;11867;51.198;11.966;2024-01-15T00:26:10;98711.94;;;0.95;92.63
32733;BME280;11867;51.198;11.966;2024-01-15T00:27:33;98714.13;;;1.04;92.42
32733;BME280;11867;51.198;11.966;2024-01-15T00:28:56;98703.41;;;1.04;92.17
32733;BME280;11867;51.198;11.966;2024-01-15T00:30:18;98696.41;;;1.03;92.27
32733;BME280;11867;51.198;11.966;2024-01-15T00:31:41;98695.59;;;1.02;91.59
32733;BME280;11867;51.198;11.966;2024-01-15T00:33:03;98698.03;;;1.09;90.98
32733;BME280;11867;51.198;11.966;2024-01-15T00:34:26;98677.59;;;0.97;91.35
32733;BME280;11867;51.198;11.966;2024-01-15T00:35:49;98697.97;;;0.98;91.66
32733;BME280;11867;51.198;11.966;2024-01-15T00:37:12;98673.81;;;0.98;91.55
32733;BME280;11867;51.198;11.966;2024-01-15T00:38:34;98693.22;;;1.06;91.58
32733;BME280;11867;51.198;11.966;2024-01-15T00:39:57;98680.53;;;0.96;91.27
32733;BME280;11867;51.198;11.966;2024-01-15T00:41:20;98677.84;;;0.96;91.28
32733;BME280;11867;51.198;11.966;2024-01-15T00:42:43;98674.44;;;1.11;91.61
32733;BME280;11867;51.198;11.966;2024-01-15T00:44:06;98669.00;;;0.95;91.17
32733;BME280;11867;51.198;11.966;2024-01-15T00:45:29;98679.97;;;0.94;91.45
32733;BME280;11867;51.198;11.966;2024-01-15T00:46:51;98657.72;;;0.98;91.20
32733;BME280;11867;51.198;11.966;2024-01-15T00:48:14;98655.34;;;1.02;90.99
32733;BME280;11867;51.198;11.966;2024-01-15T00:49:36;98662.00;;;0.94;91.50
32733;BME280;11867;51.198;11.966;2024-01-15T00:50:59;98687.41;;;0.87;91.46
32733;BME280;11867;51.198;11.966;2024-01-15T00:52:21;98673.19;;;0.86;91.51
32733;BME280;11867;51.198;11.966;2024-01-15T00:53:44;98656.06;;;0.87;91.60
32733;BME280;11867;51.198;11.966;2024-01-15T00:55:06;98661.38;;;0.82;91.57
32733;BME280;11867;51.198;11.966;2024-01-15T00:56:31;98661.38;;;0.82;91.63
32733;BME280;11867;51.198;11.966;2024-01-15T00:57:53;98657.09;;;0.81;91.92
32733;BME280;11867;51.198;11.966;2024-01-15T00:59:16;98651.50;;;0.88;91.60
32733;BME280;11867;51.198;11.966;2024-01-15T01:00:38;98653.38;;;0.92;91.60
32733;BME280;11867;51.198;11.966;2024-01-15T01:02:01;98677.53;;;0.87;91.33
32733;BME280;11867;51.198;11.966;2024-01-15T01:03:24;98672.16;;;0.87;91.43
32733;BME280;11867;51.198;11.966;2024-01-15T01:04:47;98687.41;;;0.82;91.96
32733;BME280;11867;51.198;11.966;2024-01-15T01:06:09;98680.38;;;0.75;92.09
32733;BME280;11867;51.198;11.966;2024-01-15T01:07:32;98686.00;;;0.74;92.02
32733;BME280;11867;51.198;11.966;2024-01-15T01:08:56;98673.59;;;0.68;92.40
32733;BME280;11867;51.198;11.966;2024-01-15T01:10:19;98684.31;;;0.63;92.64
32733;BME280;11867;51.198;11.966;2024-01-15T01:11:42;98678.97;;;0.68;92.35
32733;BME280;11867;51.198;11.966;2024-01-15T01:13:05;98678.97;;;0.68;92.55
32733;BME280;11867;51.198;11.966;2024-01-15T01:14:27;98687.50;;;0.59;92.59
32733;BME280;11867;51.198;11.966;2024-01-15T01:15:50;98669.78;;;0.58;92.57
32733;BME280;11867;51.198;11.966;2024-01-15T01:17:12;98684.25;;;0.57;92.68
32733;BME280;11867;51.198;11.966;2024-01-15T01:18:35;98678.69;;;0.64;93.17
32733;BME280;11867;51.198;11.966;2024-01-15T01:19:58;98670.81;;;0.52;92.70
32733;BME280;11867;51.198;11.966;2024-01-15T01:21:21;98672.38;;;0.48;93.09
32733;BME280;11867;51.198;11.966;2024-01-15T01:22:44;98685.56;;;0.55;93.13
32733;BME280;11867;51.198;11.966;2024-01-15T01:24:06;98701.88;;;0.48;93.25
32733;BME280;11867;51.198;11.966;2024-01-15T01:25:28;98690.69;;;0.56;92.80
32733;BME280;11867;51.198;11.966;2024-01-15T01:26:53;98688.03;;;0.62;92.88
32733;BME280;11867;51.198;11.966;2024-01-15T01:28:16;98690.47;;;0.63;92.48
32733;BME280;11867;51.198;11.966;2024-01-15T01:29:38;98683.22;;;0.64;92.47
32733;BME280;11867;51.198;11.966;2024-01-15T01:31:01;98689.13;;;0.60;92.42
32733;BME280;11867;51.198;11.966;2024-01-15T01:32:23;98691.25;;;0.58;92.43
32733;BME280;11867;51.198;11.966;2024-01-15T01:33:46;98703.56;;;0.59;92.22
32733;BME280;11867;51.198;11.966;2024-01-15T01:35:08;98682.41;;;0.58;92.35
32733;BME280;11867;51.198;11.966;2024-01-15T01:36:31;98670.25;;;0.50;92.48
32733;BME280;11867;51.198;11.966;2024-01-15T01:37:53;98681.78;;;0.51;92.90
32733;BME280;11867;51.198;11.966;2024-01-15T01:39:16;98675.56;;;0.45;92.59
32733;BME280;11867;51.198;11.966;2024-01-15T01:40:38;98664.59;;;0.47;92.50
32733;BME280;11867;51.198;11.966;2024-01-15T01:42:03;98664.28;;;0.43;92.34
32733;BME280;11867;51.198;11.966;2024-01-15T01:43:25;98658.38;;;0.41;92.11
32733;BME280;11867;51.198;11.966;2024-01-15T01:44:48;98675.78;;;0.38;92.47
32733;BME280;11867;51.198;11.966;2024-01-15T01:46:10;98668.03;;;0.42;92.08
32733;BME280;11867;51.198;11.966;2024-01-15T01:47:33;98660.34;;;0.51;91.47
32733;BME280;11867;51.198;11.966;2024-01-15T01:48:56;98667.84;;;0.49;91.61
32733;BME280;11867;51.198;11.966;2024-01-15T01:50:19;98676.19;;;0.52;91.37
32733;BME280;11867;51.198;11.966;2024-01-15T01:51:41;98663.03;;;0.51;91.40
32733;BME280;11867;51.198;11.966;2024-01-15T01:53:05;98676.41;;;0.46;91.43
32733;BME280;11867;51.198;11.966;2024-01-15T01:54:29;98670.72;;;0.42;91.36
32733;BME280;11867;51.198;11.966;2024-01-15T01:55:53;98667.53;;;0.45;91.95
32733;BME280;11867;51.198;11.966;2024-01-15T01:57:17;98664.84;;;0.45;91.51
32733;BME280;11867;51.198;11.966;2024-01-15T01:58:41;98654.13;;;0.45;91.65
32733;BME280;11867;51.198;11.966;2024-01-15T02:00:05;98658.91;;;0.38;91.79
32733;BME280;11867;51.198;11.966;2024-01-15T02:01:29;98642.47;;;0.29;92.48
32733;BME280;11867;51.198;11.966;2024-01-15T02:02:51;98647.06;;;0.34;92.73
32733;BME280;11867;51.198;11.966;2024-01-15T02:04:14;98648.47;;;0.42;92.44
32733;BME280;11867;51.198;11.966;2024-01-15T02:05:43;98659.75;;;0.44;91.94
32733;BME280;11867;51.198;11.966;2024-01-15T02:07:06;98647.47;;;0.48;91.70
32733;BME280;11867;51.198;11.966;2024-01-15T02:08:28;98658.47;;;0.51;91.51
32733;BME280;11867;51.198;11.966;2024-01-15T02:09:51;98652.28;;;0.51;91.38
32733;BME280;11867;51.198;11.966;2024-01-15T02:11:13;98657.63;;;0.46;91.48
32733;BME280;11867;51.198;11.966;2024-01-15T02:12:42;98665.44;;;0.52;91.53
32733;BME280;11867;51.198;11.966;2024-01-15T02:14:04;98661.69;;;0.53;91.17
32733;BME280;11867;51.198;11.966;2024-01-15T02:15:27;98668.47;;;0.61;90.86
32733;BME280;11867;51.198;11.966;2024-01-15T02:16:49;98653.19;;;0.62;90.52
32733;BME280;11867;51.198;11.966;2024-01-15T02:18:12;98648.34;;;0.58;90.74
32733;BME280;11867;51.198;11.966;2024-01-15T02:19:34;98652.06;;;0.57;90.77
32733;BME280;11867;51.198;11.966;2024-01-15T02:20:57;98657.19;;;0.59;90.59
32733;BME280;11867;51.198;11.966;2024-01-15T02:22:19;98656.41;;;0.64;90.56
32733;BME280;11867;51.198;11.966;2024-01-15T02:23:44;98656.16;;;0.65;90.29
32733;BME280;11867;51.198;11.966;2024-01-15T02:25:06;98629.34;;;0.70;89.97
32733;BME280;11867;51.198;11.966;2024-01-15T02:26:29;98643.28;;;0.67;89.90
32733;BME280;11867;51.198;11.966;2024-01-15T02:27:51;98630.69;;;0.68;89.95
32733;BME280;11867;51.198;11.966;2024-01-15T02:29:14;98650.63;;;0.77;89.86
32733;BME280;11867;51.198;11.966;2024-01-15T02:30:38;98629.41;;;0.75;89.82
32733;BME280;11867;51.198;11.966;2024-01-15T02:32:04;98640.13;;;0.75;89.51
32733;BME280;11867;51.198;11.966;2024-01-15T02:33:26;98642.75;;;0.65;89.89
32733;BME280;11867;51.198;11.966;2024-01-15T02:34:49;98643.53;;;0.66;89.76
32733;BME280;11867;51.198;11.966;2024-01-15T02:36:12;98636.59;;;0.65;89.88
32733;BME280;11867;51.198;11.966;2024-01-15T02:37:36;98624.19;;;0.58;90.14
32733;BME280;11867;51.198;11.966;2024-01-15T02:38:59;98631.47;;;0.63;90.07
32733;BME280;11867;51.198;11.966;2024-01-15T02:40:22;98635.50;;;0.66;89.65
32733;BME280;11867;51.198;11.966;2024-01-15T02:41:44;98646.22;;;0.66;90.04
32733;BME280;11867;51.198;11.966;2024-01-15T02:43:07;98645.97;;;0.62;89.95
32733;BME280;11867;51.198;11.966;2024-01-15T02:44:29;98651.88;;;0.64;90.00
32733;BME280;11867;51.198;11.966;2024-01-15T02:45:52;98643.28;;;0.62;89.93
32733;BME280;11867;51.198;11.966;2024-01-15T02:47:14;98651.03;;;0.58;90.13
32733;BME280;11867;51.198;11.966;2024-01-15T02:48:37;98662.78;;;0.52;89.97
32733;BME280;11867;51.198;11.966;2024-01-15T02:50:00;98670.28;;;0.55;90.33
32733;BME280;11867;51.198;11.966;2024-01-15T02:51:22;98683.19;;;0.58;89.90
32733;BME280;11867;51.198;11.966;2024-01-15T02:52:45;98676.19;;;0.52;90.31
32733;BME280;11867;51.198;11.966;2024-01-15T02:54:08;98675.97;;;0.59;90.61
32733;BME280;11867;51.198;11.966;2024-01-15T02:55:31;98674.63;;;0.62;90.40
32733;BME280;11867;51.198;11.966;2024-01-15T02:56:53;98674.94;;;0.65;90.47
32733;BME280;11867;51.198;11.966;2024-01-15T02:58:16;98672.56;;;0.69;90.64
32733;BME280;11867;51.198;11.966;2024-01-15T02:59:38;98675.78;;;0.71;90.27
32733;BME280;11867;51.198;11.966;2024-01-15T03:01:01;98669.00;;;0.58;90.48
32733;BME280;11867;51.198;11.966;2024-01-15T03:02:23;98660.66;;;0.59;90.83
32733;BME280;11867;51.198;11.966;2024-01-15T03:03:46;98669.78;;;0.58;90.84
32733;BME280;11867;51.198;11.966;2024-01-15T03:05:09;98671.16;;;0.61;90.32
32733;BME280;11867;51.198;11.966;2024-01-15T03:06:32;98666.88;;;0.60;90.08
32733;BME280;11867;51.198;11.966;2024-01-15T03:07:54;98655.34;;;0.65;90.24
32733;BME280;11867;51.198;11.966;2024-01-15T03:09:18;98656.53;;;0.79;89.97
32733;BME280;11867;51.198;11.966;2024-01-15T03:10:40;98651.09;;;0.69;89.42
32733;BME280;11867;51.198;11.966;2024-01-15T03:12:04;98657.50;;;0.68;89.35
32733;BME280;11867;51.198;11.966;2024-01-15T03:13:26;98646.22;;;0.60;90.10
32733;BME280;11867;51.198;11.966;2024-01-15T03:14:49;98651.78;;;0.54;90.42
32733;BME280;11867;51.198;11.966;2024-01-15T03:16:11;98652.69;;;0.65;90.60
32733;BME280;11867;51.198;11.966;2024-01-15T03:17:34;98662.09;;;0.72;90.36
32733;BME280;11867;51.198;11.966;2024-01-15T03:18:56;98655.84;;;0.62;89.89
32733;BME280;11867;51.198;11.966;2024-01-15T03:20:19;98653.47;;;0.65;90.23
32733;BME280;11867;51.198;11.966;2024-01-15T03:21:40;98667.66;;;0.60;89.89
32733;BME280;11867;51.198;11.966;2024-01-15T03:23:03;98648.84;;;0.55;90.10
32733;BME280;11867;51.198;11.966;2024-01-15T03:24:27;98659.28;;;0.52;90.08
32733;BME280;11867;51.198;11.966;2024-01-15T03:25:50;98663.81;;;0.51;90.33
32733;BME280;11867;51.198;11.966;2024-01-15T03:27:12;98653.31;;;0.45;90.24
32733;BME280;11867;51.198;11.966;2024-01-15T03:28:34;98655.75;;;0.46;90.34
32733;BME280;11867;51.198;11.966;2024-01-15T03:29:57;98655.53;;;0.53;90.51
32733;BME280;11867;51.198;11.966;2024-01-15T03:31:19;98651.28;;;0.57;89.69
32733;BME280;11867;51.198;11.966;2024-01-15T03:32:43;98636.75;;;0.53;89.82
32733;BME280;11867;51.198;11.966;2024-01-15T03:34:05;98641.56;;;0.51;89.75
32733;BME280;11867;51.198;11.966;2024-01-15T03:35:28;98649.38;;;0.57;89.67
32733;BME280;11867;51.198;11.966;2024-01-15T03:36:51;98641.34;;;0.57;89.48
32733;BME280;11867;51.198;11.966;2024-01-15T03:38:14;98637.91;;;0.62;89.46
32733;BME280;11867;51.198;11.966;2024-01-15T03:39:37;98638.72;;;0.68;89.38
32733;BME280;11867;51.198;11.966;2024-01-15T03:41:00;98637.38;;;0.60;88.65
32733;BME280;11867;51.198;11.966;2024-01-15T03:42:22;98638.16;;;0.60;89.32
32733;BME280;11867;51.198;11.966;2024-01-15T03:43:48;98627.91;;;0.52;89.61
32733;BME280;11867;51.198;11.966;2024-01-15T03:45:11;98631.63;;;0.46;89.78
32733;BME280;11867;51.198;11.966;2024-01-15T03:46:34;98634.31;;;0.51;89.30
32733;BME280;11867;51.198;11.966;2024-01-15T03:47:56;98640.22;;;0.48;89.48
32733;BME280;11867;51.198;11.966;2024-01-15T03:49:19;98665.63;;;0.40;89.86
32733;BME280;11867;51.198;11.966;2024-01-15T03:50:41;98640.63;;;0.35;90.25
32733;BME280;11867;51.198;11.966;2024-01-15T03:52:05;98655.66;;;0.36;90.75
32733;BME280;11867;51.198;11.966;2024-01-15T03:53:26;98642.72;;;0.28;91.22
32733;BME280;11867;51.198;11.966;2024-01-15T03:54:51;98634.44;;;0.29;91.77
32733;BME280;11867;51.198;11.966;2024-01-15T03:56:13;98640.81;;;0.23;92.26
32733;BME280;11867;51.198;11.966;2024-01-15T03:57:36;98649.97;;;0.27;92.37
32733;BME280;11867;51.198;11.966;2024-01-15T03:58:58;98641.84;;;0.17;92.71
32733;BME280;11867;51.198;11.966;2024-01-15T04:00:22;98644.13;;;0.08;93.49
32733;BME280;11867;51.198;11.966;2024-01-15T04:01:48;98649.00;;;0.11;93.60
32733;BME280;11867;51.198;11.966;2024-01-15T04:03:12;98648.19;;;0.11;93.19
32733;BME280;11867;51.198;11.966;2024-01-15T04:04:34;98654.91;;;0.13;93.56
32733;BME280;11867;51.198;11.966;2024-01-15T04:05:57;98653.09;;;0.19;93.09
32733;BME280;11867;51.198;11.966;2024-01-15T04:07:19;98663.81;;;0.19;92.92
32733;BME280;11867;51.198;11.966;2024-01-15T04:08:42;98659.84;;;0.27;92.65
32733;BME280;11867;51.198;11.966;2024-01-15T04:10:06;98665.88;;;0.39;92.29
32733;BME280;11867;51.198;11.966;2024-01-15T04:11:29;98663.16;;;0.34;91.69
32733;BME280;11867;51.198;11.966;2024-01-15T04:12:51;98653.44;;;0.28;91.55
32733;BME280;11867;51.198;11.966;2024-01-15T04:14:14;98664.19;;;0.33;91.57
32733;BME280;11867;51.198;11.966;2024-01-15T04:15:36;98680.81;;;0.30;91.32
32733;BME280;11867;51.198;11.966;2024-01-15T04:16:59;98675.09;;;0.21;91.62
32733;BME280;11867;51.198;11.966;2024-01-15T04:18:21;98674.03;;;0.22;91.41
32733;BME280;11867;51.198;11.966;2024-01-15T04:19:44;98648.03;;;0.23;91.67
32733;BME280;11867;51.198;11.966;2024-01-15T04:21:07;98666.22;;;0.20;91.05
32733;BME280;11867;51.198;11.966;2024-01-15T04:22:30;98671.59;;;0.20;90.99
32733;BME280;11867;51.198;11.966;2024-01-15T04:23:52;98686.06;;;0.19;90.81
32733;BME280;11867;51.198;11.966;2024-01-15T04:25:16;98669.44;;;0.17;90.75
32733;BME280;11867;51.198;11.966;2024-01-15T04:26:38;98664.00;;;0.12;90.97
32733;BME280;11867;51.198;11.966;2024-01-15T04:28:01;98674.28;;;0.20;90.59
32733;BME280;11867;51.198;11.966;2024-01-15T04:29:23;98668.63;;;0.17;90.84
32733;BME280;11867;51.198;11.966;2024-01-15T04:30:46;98673.72;;;0.18;90.24
32733;BME280;11867;51.198;11.966;2024-01-15T04:32:08;98667.63;;;0.23;89.95
32733;BME280;11867;51.198;11.966;2024-01-15T04:33:31;98668.97;;;0.26;89.32
32733;BME280;11867;51.198;11.966;2024-01-15T04:34:53;98675.19;;;0.31;89.20
32733;BME280;11867;51.198;11.966;2024-01-15T04:36:16;98680.28;;;0.33;89.19
32733;BME280;11867;51.198;11.966;2024-01-15T04:37:39;98668.97;;;0.26;89.42
32733;BME280;11867;51.198;11.966;2024-01-15T04:39:01;98668.97;;;0.26;89.50
32733;BME280;11867;51.198;11.966;2024-01-15T04:40:26;98669.75;;;0.21;89.87
32733;BME280;11867;51.198;11.966;2024-01-15T04:41:49;98658.19;;;0.20;89.71
32733;BME280;11867;51.198;11.966;2024-01-15T04:43:12;98665.66;;;0.18;89.71
32733;BME280;11867;51.198;11.966;2024-01-15T04:44:34;98668.34;;;0.18;89.57
32733;BME280;11867;51.198;11.966;2024-01-15T04:45:57;98666.28;;;0.26;89.40
32733;BME280;11867;51.198;11.966;2024-01-15T04:47:19;98660.63;;;0.22;89.25
32733;BME280;11867;51.198;11.966;2024-01-15T04:48:45;98652.81;;;0.20;89.46
32733;BME280;11867;51.198;11.966;2024-01-15T04:50:08;98651.78;;;0.22;89.37
32733;BME280;11867;51.198;11.966;2024-01-15T04:51:31;98655.50;;;0.20;89.54
32733;BME280;11867;51.198;11.966;2024-01-15T04:52:53;98655.56;;;0.26;89.43
32733;BME280;11867;51.198;11.966;2024-01-15T04:54:16;98661.94;;;0.19;89.50
32733;BME280;11867;51.198;11.966;2024-01-15T04:55:41;98657.38;;;0.20;89.76
32733;BME280;11867;51.198;11.966;2024-01-15T04:57:04;98656.28;;;0.16;90.10
32733;BME280;11867;51.198;11.966;2024-01-15T04:58:26;98655.25;;;0.22;89.68
32733;BME280;11867;51.198;11.966;2024-01-15T04:59:49;98649.34;;;0.20;89.87
32733;BME280;11867;51.198;11.966;2024-01-15T05:01:11;98641.09;;;0.27;89.48
32733;BME280;11867;51.198;11.966;2024-01-15T05:02:34;98647.00;;;0.29;89.56
32733;BME280;11867;51.198;11.966;2024-01-15T05:03:56;98659.91;;;0.32;89.37
32733;BME280;11867;51.198;11.966;2024-01-15T05:05:21;98643.03;;;0.31;88.72
32733;BME280;11867;51.198;11.966;2024-01-15T05:06:43;98643.22;;;0.25;89.02
32733;BME280;11867;51.198;11.966;2024-01-15T05:08:06;98639.50;;;0.26;89.36
32733;BME280;11867;51.198;11.966;2024-01-15T05:09:28;98650.22;;;0.26;88.97
32733;BME280;11867;51.198;11.966;2024-01-15T05:10:55;98642.66;;;0.23;89.15
32733;BME280;11867;51.198;11.966;2024-01-15T05:12:17;98653.34;;;0.17;89.36
32733;BME280;11867;51.198;11.966;2024-01-15T05:13:40;98636.97;;;0.14;89.67
32733;BME280;11867;51.198;11.966;2024-01-15T05:15:03;98646.91;;;0.18;89.57
32733;BME280;11867;51.198;11.966;2024-01-15T05:16:26;98644.50;;;0.17;89.24
32733;BME280;11867;51.198;11.966;2024-01-15T05:17:48;98642.31;;;0.14;89.38
32733;BME280;11867;51.198;11.966;2024-01-15T05:19:11;98662.66;;;0.10;89.50
32733;BME280;11867;51.198;11.966;2024-01-15T05:20:33;98648.69;;;0.08;89.20
32733;BME280;11867;51.198;11.966;2024-01-15T05:21:56;98652.00;;;0.15;89.79
32733;BME280;11867;51.198;11.966;2024-01-15T05:23:18;98651.53;;;0.23;89.26
32733;BME280;11867;51.198;11.966;2024-01-15T05:24:44;98647.94;;;0.12;88.99
32733;BME280;11867;51.198;11.966;2024-01-15T05:26:07;98654.94;;;0.18;89.04
32733;BME280;11867;51.198;11.966;2024-01-15T05:27:30;98659.47;;;0.13;88.79
32733;BME280;11867;51.198;11.966;2024-01-15T05:28:53;98652.56;;;0.17;88.70
32733;BME280;11867;51.198;11.966;2024-01-15T05:30:16;98633.50;;;0.18;88.78
32733;BME280;11867;51.198;11.966;2024-01-15T05:31:38;98636.72;;;0.15;88.69
32733;BME280;11867;51.198;11.966;2024-01-15T05:33:01;98627.66;;;0.22;88.44
32733;BME280;11867;51.198;11.966;2024-01-15T05:34:24;98642.50;;;0.34;88.19
32733;BME280;11867;51.198;11.966;2024-01-15T05:35:50;98639.03;;;0.34;87.93
32733;BME280;11867;51.198;11.966;2024-01-15T05:37:12;98645.44;;;0.33;88.00
32733;BME280;11867;51.198;11.966;2024-01-15T05:38:35;98637.59;;;0.21;88.45
32733;BME280;11867;51.198;11.966;2024-01-15T05:39:57;98645.41;;;0.28;88.21
32733;BME280;11867;51.198;11.966;2024-01-15T05:41:21;98639.06;;;0.39;87.59
32733;BME280;11867;51.198;11.966;2024-01-15T05:42:43;98645.25;;;0.39;87.24
32733;BME280;11867;51.198;11.966;2024-01-15T05:44:06;98645.50;;;0.38;87.38
32733;BME280;11867;51.198;11.966;2024-01-15T05:45:29;98645.44;;;0.33;87.40
32733;BME280;11867;51.198;11.966;2024-01-15T05:46:53;98644.94;;;0.36;87.22
32733;BME280;11867;51.198;11.966;2024-01-15T05:48:15;98642.72;;;0.28;87.58
32733;BME280;11867;51.198;11.966;2024-01-15T05:49:38;98633.59;;;0.29;87.37
32733;BME280;11867;51.198;11.966;2024-01-15T05:51:00;98634.94;;;0.26;87.36
32733;BME280;11867;51.198;11.966;2024-01-15T05:52:24;98641.72;;;0.34;87.79
32733;BME280;11867;51.198;11.966;2024-01-15T05:53:45;98633.56;;;0.24;87.60
32733;BME280;11867;51.198;11.966;2024-01-15T05:55:13;98627.75;;;0.32;87.55
32733;BME280;11867;51.198;11.966;2024-01-15T05:56:36;98634.16;;;0.31;87.36
32733;BME280;11867;51.198;11.966;2024-01-15T05:57:59;98630.13;;;0.28;87.41
32733;BME280;11867;51.198;11.966;2024-01-15T05:59:21;98618.06;;;0.31;87.69
32733;BME280;11867;51.198;11.966;2024-01-15T06:00:44;98610.34;;;0.34;87.39
32733;BME280;11867;51.198;11.966;2024-01-15T06:02:07;98623.44;;;0.31;87.40
32733;BME280;11867;51.198;11.966;2024-01-15T06:03:30;98614.84;;;0.29;87.47
32733;BME280;11867;51.198;11.966;2024-01-15T06:04:52;98618.25;;;0.19;87.45
32733;BME280;11867;51.198;11.966;2024-01-15T06:06:15;98608.38;;;0.25;87.28
32733;BME280;11867;51.198;11.966;2024-01-15T06:07:37;98613.19;;;0.23;87.24
32733;BME280;11867;51.198;11.966;2024-01-15T06:09:00;98603.56;;;0.27;87.30
32733;BME280;11867;51.198;11.966;2024-01-15T06:10:27;98604.09;;;0.24;86.92
32733;BME280;11867;51.198;11.966;2024-01-15T06:11:51;98601.72;;;0.27;87.16
32733;BME280;11867;51.198;11.966;2024-01-15T06:13:13;98602.38;;;0.12;87.37
32733;BME280;11867;51.198;11.966;2024-01-15T06:14:36;98613.16;;;0.17;87.22
32733;BME280;11867;51.198;11.966;2024-01-15T06:15:58;98609.22;;;0.30;87.19
32733;BME280;11867;51.198;11.966;2024-01-15T06:17:21;98606.53;;;0.25;87.06
32733;BME280;11867;51.198;11.966;2024-01-15T06:18:43;98603.22;;;0.18;87.10
32733;BME280;11867;51.198;11.966;2024-01-15T06:20:07;98605.91;;;0.18;87.29
32733;BME280;11867;51.198;11.966;2024-01-15T06:21:30;98598.94;;;0.17;87.00
32733;BME280;11867;51.198;11.966;2024-01-15T06:22:53;98602.50;;;0.28;86.82
32733;BME280;11867;51.198;11.966;2024-01-15T06:24:15;98610.81;;;0.26;86.76
32733;BME280;11867;51.198;11.966;2024-01-15T06:25:40;98601.97;;;0.26;86.51
32733;BME280;11867;51.198;11.966;2024-01-15T06:27:04;98600.41;;;0.35;86.33
32733;BME280;11867;51.198;11.966;2024-01-15T06:28:27;98604.97;;;0.34;85.79
32733;BME280;11867;51.198;11.966;2024-01-15T06:29:49;98649.97;;;0.27;85.66
32733;BME280;11867;51.198;11.966;2024-01-15T06:31:12;98616.63;;;0.18;86.38
32733;BME280;11867;51.198;11.966;2024-01-15T06:32:34;98611.06;;;0.25;85.86
32733;BME280;11867;51.198;11.966;2024-01-15T06:33:57;98598.50;;;0.30;85.65
32733;BME280;11867;51.198;11.966;2024-01-15T06:35:21;98597.47;;;0.31;85.25
32733;BME280;11867;51.198;11.966;2024-01-15T06:36:44;98610.03;;;0.31;85.57
32733;BME280;11867;51.198;11.966;2024-01-15T06:38:07;98591.25;;;0.31;85.22
32733;BME280;11867;51.198;11.966;2024-01-15T06:39:29;98596.91;;;0.29;85.24
32733;BME280;11867;51.198;11.966;2024-01-15T06:40:52;98613.00;;;0.29;85.71
32733;BME280;11867;51.198;11.966;2024-01-15T06:42:16;98597.72;;;0.35;85.39
32733;BME280;11867;51.198;11.966;2024-01-15T06:43:39;98605.81;;;0.40;85.34
32733;BME280;11867;51.198;11.966;2024-01-15T06:45:01;98613.34;;;0.43;85.08
32733;BME280;11867;51.198;11.966;2024-01-15T06:46:24;98609.63;;;0.44;84.68
32733;BME280;11867;51.198;11.966;2024-01-15T06:47:46;98604.75;;;0.41;84.91
32733;BME280;11867;51.198;11.966;2024-01-15T06:49:09;98611.44;;;0.38;85.12
32733;BME280;11867;51.198;11.966;2024-01-15T06:50:31;98616.81;;;0.38;85.60
32733;BME280;11867;51.198;11.966;2024-01-15T06:51:54;98613.91;;;0.45;85.24
32733;BME280;11867;51.198;11.966;2024-01-15T06:53:16;98611.69;;;0.37;85.13
32733;BME280;11867;51.198;11.966;2024-01-15T06:54:39;98609.53;;;0.34;85.40
32733;BME280;11867;51.198;11.966;2024-01-15T06:56:01;98609.06;;;0.42;85.37
32733;BME280;11867;51.198;11.966;2024-01-15T06:57:25;98605.78;;;0.35;85.18
32733;BME280;11867;51.198;11.966;2024-01-15T06:58:47;98616.50;;;0.35;85.28
32733;BME280;11867;51.198;11.966;2024-01-15T07:00:10;98619.19;;;0.35;85.70
32733;BME280;11867;51.198;11.966;2024-01-15T07:01:33;98624.50;;;0.30;85.16
32733;BME280;11867;51.198;11.966;2024-01-15T07:02:56;98626.13;;;0.31;85.52
32733;BME280;11867;51.198;11.966;2024-01-15T07:04:18;98644.88;;;0.31;85.38
32733;BME280;11867;51.198;11.966;2024-01-15T07:05:41;98621.13;;;0.39;84.96
32733;BME280;11867;51.198;11.966;2024-01-15T07:07:03;98615.38;;;0.31;85.04
32733;BME280;11867;51.198;11.966;2024-01-15T07:08:26;98625.41;;;0.40;85.16
32733;BME280;11867;51.198;11.966;2024-01-15T07:09:48;98624.81;;;0.33;85.05
32733;BME280;11867;51.198;11.966;2024-01-15T07:11:14;98629.41;;;0.38;84.98
32733;BME280;11867;51.198;11.966;2024-01-15T07:12:37;98635.09;;;0.47;84.89
32733;BME280;11867;51.198;11.966;2024-01-15T07:14:00;98634.31;;;0.51;84.26
32733;BME280;11867;51.198;11.966;2024-01-15T07:15:22;98637.16;;;0.34;84.71
32733;BME280;11867;51.198;11.966;2024-01-15T07:16:45;98641.09;;;0.27;85.65
32733;BME280;11867;51.198;11.966;2024-01-15T07:18:09;98628.53;;;0.32;85.39
32733;BME280;11867;51.198;11.966;2024-01-15T07:19:32;98641.72;;;0.34;85.25